sensor_id;sensor_type;location;lat;lon;timestamp;temperature;humidity
55064;DHT22;40963;52.168;21.296;2023-06-24T00:01:00;18.30;99.90
55064;DHT22;40963;52.168;21.296;2023-06-24T00:03:26;18.30;99.90
55064;DHT22;40963;52.168;21.296;2023-06-24T00:05:52;18.20;99.90
55064;DHT22;40963;52.168;21.296;2023-06-24T00:08:19;18.30;99.90
55064;DHT22;40963;52.168;21.296;2023-06-24T00:10:46;18.30;99.90
55064;DHT22;40963;52.168;21.296;2023-06-24T00:13:12;18.30;99.90
55064;DHT22;40963;52.168;21.296;2023-06-24T00:15:38;18.30;99.90
55064;DHT22;40963;52.168;21.296;2023-06-24T00:18:11;18.30;99.90
55064;DHT22;40963;52.168;21.296;2023-06-24T00:20:37;18.30;99.90
55064;DHT22;40963;52.168;21.296;2023-06-24T00:23:02;18.30;99.90
55064;DHT22;40963;52.168;21.296;2023-06-24T00:25:29;18.30;99.90
55064;DHT22;40963;52.168;21.296;2023-06-24T00:27:55;18.30;99.90
55064;DHT22;40963;52.168;21.296;2023-06-24T00:30:20;18.30;99.90
55064;DHT22;40963;52.168;21.296;2023-06-24T00:32:46;18.40;99.90
55064;DHT22;40963;52.168;21.296;2023-06-24T00:35:11;18.40;99.90
55064;DHT22;40963;52.168;21.296;2023-06-24T00:37:40;18.50;99.90
55064;DHT22;40963;52.168;21.296;2023-06-24T00:40:08;18.40;99.90
55064;DHT22;40963;52.168;21.296;2023-06-24T00:42:40;18.40;99.90
55064;DHT22;40963;52.168;21.296;2023-06-24T00:45:07;18.50;99.90
55064;DHT22;40963;52.168;21.296;2023-06-24T00:47:33;18.40;99.90
55064;DHT22;40963;52.168;21.296;2023-06-24T00:49:59;18.50;99.90
55064;DHT22;40963;52.168;21.296;2023-06-24T00:52:25;18.40;99.90
55064;DHT22;40963;52.168;21.296;2023-06-24T00:54:51;18.50;99.90
55064;DHT22;40963;52.168;21.296;2023-06-24T00:57:17;18.40;99.90
55064;DHT22;40963;52.168;21.296;2023-06-24T00:59:47;18.40;99.90
55064;DHT22;40963;52.168;21.296;2023-06-24T01:02:12;18.40;99.90
55064;DHT22;40963;52.168;21.296;2023-06-24T01:04:38;18.40;99.90
55064;DHT22;40963;52.168;21.296;2023-06-24T01:07:05;18.40;99.90
55064;DHT22;40963;52.168;21.296;2023-06-24T01:09:31;18.40;99.90
55064;DHT22;40963;52.168;21.296;2023-06-24T01:11:57;18.40;99.90
55064;DHT22;40963;52.168;21.296;2023-06-24T01:14:23;18.40;99.90
55064;DHT22;40963;52.168;21.296;2023-06-24T01:17:19;18.40;99.90
55064;DHT22;40963;52.168;21.296;2023-06-24T01:20:05;18.30;99.90
55064;DHT22;40963;52.168;21.296;2023-06-24T01:28:13;18.30;99.90
55064;DHT22;40963;52.168;21.296;2023-06-24T01:33:36;18.30;99.90
55064;DHT22;40963;52.168;21.296;2023-06-24T01:36:05;18.30;99.90
55064;DHT22;40963;52.168;21.296;2023-06-24T01:38:58;18.30;99.90
55064;DHT22;40963;52.168;21.296;2023-06-24T01:41:30;18.20;99.90
55064;DHT22;40963;52.168;21.296;2023-06-24T01:43:58;18.20;99.90
55064;DHT22;40963;52.168;21.296;2023-06-24T01:46:25;18.20;99.90
55064;DHT22;40963;52.168;21.296;2023-06-24T01:48:59;18.10;99.90
55064;DHT22;40963;52.168;21.296;2023-06-24T01:51:27;18.10;99.90
55064;DHT22;40963;52.168;21.296;2023-06-24T01:54:07;18.10;99.90
55064;DHT22;40963;52.168;21.296;2023-06-24T01:56:36;18.10;99.90
55064;DHT22;40963;52.168;21.296;2023-06-24T01:59:04;18.10;99.90
55064;DHT22;40963;52.168;21.296;2023-06-24T02:01:32;18.10;99.90
55064;DHT22;40963;52.168;21.296;2023-06-24T02:04:00;18.10;99.90
55064;DHT22;40963;52.168;21.296;2023-06-24T02:06:28;18.10;99.90
55064;DHT22;40963;52.168;21.296;2023-06-24T02:08:56;18.00;99.90
55064;DHT22;40963;52.168;21.296;2023-06-24T02:11:24;18.10;99.90
55064;DHT22;40963;52.168;21.296;2023-06-24T02:13:51;18.10;99.90
55064;DHT22;40963;52.168;21.296;2023-06-24T02:16:18;18.10;99.90
55064;DHT22;40963;52.168;21.296;2023-06-24T02:18:45;18.10;99.90
55064;DHT22;40963;52.168;21.296;2023-06-24T02:21:13;18.20;99.90
55064;DHT22;40963;52.168;21.296;2023-06-24T02:23:39;18.20;99.90
55064;DHT22;40963;52.168;21.296;2023-06-24T02:26:06;18.10;99.90
55064;DHT22;40963;52.168;21.296;2023-06-24T02:28:33;18.10;99.90
55064;DHT22;40963;52.168;21.296;2023-06-24T02:31:00;18.00;99.90
55064;DHT22;40963;52.168;21.296;2023-06-24T02:33:26;18.00;99.90
55064;DHT22;40963;52.168;21.296;2023-06-24T02:35:52;18.00;99.90
55064;DHT22;40963;52.168;21.296;2023-06-24T02:38:18;18.00;99.90
55064;DHT22;40963;52.168;21.296;2023-06-24T02:40:47;17.90;99.90
55064;DHT22;40963;52.168;21.296;2023-06-24T02:43:12;17.90;99.90
55064;DHT22;40963;52.168;21.296;2023-06-24T02:45:39;17.80;99.90
55064;DHT22;40963;52.168;21.296;2023-06-24T02:48:06;17.80;99.90
55064;DHT22;40963;52.168;21.296;2023-06-24T02:50:33;17.80;99.90
55064;DHT22;40963;52.168;21.296;2023-06-24T02:52:59;17.70;99.90
55064;DHT22;40963;52.168;21.296;2023-06-24T02:55:26;17.70;99.90
55064;DHT22;40963;52.168;21.296;2023-06-24T02:57:52;17.70;99.90
55064;DHT22;40963;52.168;21.296;2023-06-24T03:00:18;17.70;99.90
55064;DHT22;40963;52.168;21.296;2023-06-24T03:02:45;17.80;99.90
55064;DHT22;40963;52.168;21.296;2023-06-24T03:05:13;17.80;99.90
55064;DHT22;40963;52.168;21.296;2023-06-24T03:07:40;17.80;99.90
55064;DHT22;40963;52.168;21.296;2023-06-24T03:10:06;17.80;99.90
55064;DHT22;40963;52.168;21.296;2023-06-24T03:12:32;17.90;99.90
55064;DHT22;40963;52.168;21.296;2023-06-24T03:14:58;17.90;99.90
55064;DHT22;40963;52.168;21.296;2023-06-24T03:17:23;17.90;99.90
55064;DHT22;40963;52.168;21.296;2023-06-24T03:19:50;17.90;99.90
55064;DHT22;40963;52.168;21.296;2023-06-24T03:22:16;18.00;99.90
55064;DHT22;40963;52.168;21.296;2023-06-24T03:24:42;18.00;99.90
55064;DHT22;40963;52.168;21.296;2023-06-24T03:27:08;18.00;99.90
55064;DHT22;40963;52.168;21.296;2023-06-24T03:29:34;17.90;99.90
55064;DHT22;40963;52.168;21.296;2023-06-24T03:31:59;17.90;99.90
55064;DHT22;40963;52.168;21.296;2023-06-24T03:34:25;17.90;99.90
55064;DHT22;40963;52.168;21.296;2023-06-24T03:36:53;17.90;99.90
55064;DHT22;40963;52.168;21.296;2023-06-24T03:39:19;18.00;99.90
55064;DHT22;40963;52.168;21.296;2023-06-24T03:41:45;18.00;99.90
55064;DHT22;40963;52.168;21.296;2023-06-24T03:44:11;18.00;99.90
55064;DHT22;40963;52.168;21.296;2023-06-24T03:46:36;18.00;99.90
55064;DHT22;40963;52.168;21.296;2023-06-24T03:49:02;18.00;99.90
55064;DHT22;40963;52.168;21.296;2023-06-24T03:51:28;18.00;99.90
55064;DHT22;40963;52.168;21.296;2023-06-24T03:53:54;18.00;99.90
55064;DHT22;40963;52.168;21.296;2023-06-24T03:56:20;18.00;99.90
55064;DHT22;40963;52.168;21.296;2023-06-24T03:58:45;18.00;99.90
55064;DHT22;40963;52.168;21.296;2023-06-24T04:01:11;18.00;99.90
55064;DHT22;40963;52.168;21.296;2023-06-24T04:03:36;18.00;99.90
55064;DHT22;40963;52.168;21.296;2023-06-24T04:06:02;18.00;99.90
55064;DHT22;40963;52.168;21.296;2023-06-24T04:08:28;18.00;99.90
55064;DHT22;40963;52.168;21.296;2023-06-24T04:10:57;18.00;99.90
55064;DHT22;40963;52.168;21.296;2023-06-24T04:13:25;18.00;99.90
55064;DHT22;40963;52.168;21.296;2023-06-24T04:15:51;18.00;99.90
55064;DHT22;40963;52.168;21.296;2023-06-24T04:18:17;18.00;99.90
55064;DHT22;40963;52.168;21.296;2023-06-24T04:20:43;18.00;99.90
55064;DHT22;40963;52.168;21.296;2023-06-24T04:23:09;17.90;99.90
55064;DHT22;40963;52.168;21.296;2023-06-24T04:25:36;18.00;99.90
55064;DHT22;40963;52.168;21.296;2023-06-24T04:28:02;18.00;99.90
55064;DHT22;40963;52.168;21.296;2023-06-24T04:30:30;18.00;99.90
55064;DHT22;40963;52.168;21.296;2023-06-24T04:32:56;18.00;99.90
55064;DHT22;40963;52.168;21.296;2023-06-24T04:35:21;18.10;99.90
55064;DHT22;40963;52.168;21.296;2023-06-24T04:37:47;18.10;99.90
55064;DHT22;40963;52.168;21.296;2023-06-24T04:40:16;18.10;99.90
55064;DHT22;40963;52.168;21.296;2023-06-24T04:42:42;18.20;99.90
55064;DHT22;40963;52.168;21.296;2023-06-24T04:45:08;18.30;99.90
55064;DHT22;40963;52.168;21.296;2023-06-24T04:47:34;18.30;99.90
55064;DHT22;40963;52.168;21.296;2023-06-24T04:50:00;18.40;99.90
55064;DHT22;40963;52.168;21.296;2023-06-24T04:52:25;18.40;99.90
55064;DHT22;40963;52.168;21.296;2023-06-24T04:54:51;18.50;99.90
55064;DHT22;40963;52.168;21.296;2023-06-24T04:57:26;18.50;99.90
55064;DHT22;40963;52.168;21.296;2023-06-24T04:59:52;18.60;99.90
55064;DHT22;40963;52.168;21.296;2023-06-24T05:02:17;18.60;99.90
55064;DHT22;40963;52.168;21.296;2023-06-24T05:04:43;18.60;99.90
55064;DHT22;40963;52.168;21.296;2023-06-24T05:07:08;18.70;99.90
55064;DHT22;40963;52.168;21.296;2023-06-24T05:09:34;18.80;99.90
55064;DHT22;40963;52.168;21.296;2023-06-24T05:12:03;18.80;99.90
55064;DHT22;40963;52.168;21.296;2023-06-24T05:14:29;18.80;99.90
55064;DHT22;40963;52.168;21.296;2023-06-24T05:16:55;18.90;99.90
55064;DHT22;40963;52.168;21.296;2023-06-24T05:19:20;19.00;99.90
55064;DHT22;40963;52.168;21.296;2023-06-24T05:21:46;19.00;99.90
55064;DHT22;40963;52.168;21.296;2023-06-24T05:24:12;19.00;99.90
55064;DHT22;40963;52.168;21.296;2023-06-24T05:26:37;19.10;99.90
55064;DHT22;40963;52.168;21.296;2023-06-24T05:29:03;19.10;99.90
55064;DHT22;40963;52.168;21.296;2023-06-24T05:31:29;19.20;99.90
55064;DHT22;40963;52.168;21.296;2023-06-24T05:33:54;19.20;99.90
55064;DHT22;40963;52.168;21.296;2023-06-24T05:36:20;19.20;99.90
55064;DHT22;40963;52.168;21.296;2023-06-24T05:38:45;19.30;99.90
55064;DHT22;40963;52.168;21.296;2023-06-24T05:41:11;19.30;99.90
55064;DHT22;40963;52.168;21.296;2023-06-24T05:43:37;19.30;99.90
55064;DHT22;40963;52.168;21.296;2023-06-24T05:46:02;19.40;99.90
55064;DHT22;40963;52.168;21.296;2023-06-24T05:48:29;19.40;99.90
55064;DHT22;40963;52.168;21.296;2023-06-24T05:50:55;19.40;99.90
55064;DHT22;40963;52.168;21.296;2023-06-24T05:53:20;19.50;99.90
55064;DHT22;40963;52.168;21.296;2023-06-24T05:55:46;19.50;99.90
55064;DHT22;40963;52.168;21.296;2023-06-24T05:58:12;19.50;99.90
55064;DHT22;40963;52.168;21.296;2023-06-24T06:00:37;19.60;99.90
55064;DHT22;40963;52.168;21.296;2023-06-24T06:03:03;19.70;99.90
55064;DHT22;40963;52.168;21.296;2023-06-24T06:05:29;19.70;99.90
55064;DHT22;40963;52.168;21.296;2023-06-24T06:07:54;19.80;99.90
55064;DHT22;40963;52.168;21.296;2023-06-24T06:10:20;19.80;99.90
55064;DHT22;40963;52.168;21.296;2023-06-24T06:12:46;19.90;99.90
55064;DHT22;40963;52.168;21.296;2023-06-24T06:15:12;19.90;99.90
55064;DHT22;40963;52.168;21.296;2023-06-24T06:17:38;20.00;99.90
55064;DHT22;40963;52.168;21.296;2023-06-24T06:20:04;20.10;99.90
55064;DHT22;40963;52.168;21.296;2023-06-24T06:22:30;20.20;99.90
55064;DHT22;40963;52.168;21.296;2023-06-24T06:24:57;20.30;99.90
55064;DHT22;40963;52.168;21.296;2023-06-24T06:27:23;20.40;99.90
55064;DHT22;40963;52.168;21.296;2023-06-24T06:29:48;20.50;99.90
55064;DHT22;40963;52.168;21.296;2023-06-24T06:32:14;20.50;99.90
55064;DHT22;40963;52.168;21.296;2023-06-24T06:34:40;20.60;99.90
55064;DHT22;40963;52.168;21.296;2023-06-24T06:37:05;20.70;99.90
55064;DHT22;40963;52.168;21.296;2023-06-24T06:39:31;20.70;99.90
55064;DHT22;40963;52.168;21.296;2023-06-24T06:41:57;20.70;99.90
55064;DHT22;40963;52.168;21.296;2023-06-24T06:44:22;20.70;99.90
55064;DHT22;40963;52.168;21.296;2023-06-24T06:46:48;20.80;99.90
55064;DHT22;40963;52.168;21.296;2023-06-24T06:49:13;20.80;99.90
55064;DHT22;40963;52.168;21.296;2023-06-24T06:51:39;20.80;99.40
55064;DHT22;40963;52.168;21.296;2023-06-24T06:54:05;20.90;99.90
55064;DHT22;40963;52.168;21.296;2023-06-24T06:56:30;21.00;99.10
55064;DHT22;40963;52.168;21.296;2023-06-24T06:58:56;21.00;99.00
55064;DHT22;40963;52.168;21.296;2023-06-24T07:01:22;21.10;99.00
55064;DHT22;40963;52.168;21.296;2023-06-24T07:03:49;21.10;98.20
55064;DHT22;40963;52.168;21.296;2023-06-24T07:06:15;21.10;97.90
55064;DHT22;40963;52.168;21.296;2023-06-24T07:08:42;21.20;97.80
55064;DHT22;40963;52.168;21.296;2023-06-24T07:11:08;21.30;97.90
55064;DHT22;40963;52.168;21.296;2023-06-24T07:13:34;21.30;97.70
55064;DHT22;40963;52.168;21.296;2023-06-24T07:15:59;21.40;97.70
55064;DHT22;40963;52.168;21.296;2023-06-24T07:18:25;21.50;97.70
55064;DHT22;40963;52.168;21.296;2023-06-24T07:20:55;21.50;97.10
55064;DHT22;40963;52.168;21.296;2023-06-24T07:23:21;21.60;97.00
55064;DHT22;40963;52.168;21.296;2023-06-24T07:25:46;21.60;96.40
55064;DHT22;40963;52.168;21.296;2023-06-24T07:28:12;21.70;96.20
55064;DHT22;40963;52.168;21.296;2023-06-24T07:30:38;21.80;95.70
55064;DHT22;40963;52.168;21.296;2023-06-24T07:33:03;21.80;95.40
55064;DHT22;40963;52.168;21.296;2023-06-24T07:35:31;21.80;95.50
55064;DHT22;40963;52.168;21.296;2023-06-24T07:37:58;21.80;95.60
55064;DHT22;40963;52.168;21.296;2023-06-24T07:40:24;21.90;95.60
55064;DHT22;40963;52.168;21.296;2023-06-24T07:42:49;22.00;95.90
55064;DHT22;40963;52.168;21.296;2023-06-24T07:45:15;22.10;95.20
55064;DHT22;40963;52.168;21.296;2023-06-24T07:47:40;22.10;94.20
55064;DHT22;40963;52.168;21.296;2023-06-24T07:50:06;22.10;93.60
55064;DHT22;40963;52.168;21.296;2023-06-24T07:52:32;22.10;93.50
55064;DHT22;40963;52.168;21.296;2023-06-24T07:54:58;22.20;93.50
55064;DHT22;40963;52.168;21.296;2023-06-24T07:57:26;22.20;93.40
55064;DHT22;40963;52.168;21.296;2023-06-24T07:59:52;22.30;93.30
55064;DHT22;40963;52.168;21.296;2023-06-24T08:02:20;22.40;93.30
55064;DHT22;40963;52.168;21.296;2023-06-24T08:04:45;22.40;92.90
55064;DHT22;40963;52.168;21.296;2023-06-24T08:07:11;22.50;92.90
55064;DHT22;40963;52.168;21.296;2023-06-24T08:09:36;22.50;91.90
55064;DHT22;40963;52.168;21.296;2023-06-24T08:12:02;22.50;91.40
55064;DHT22;40963;52.168;21.296;2023-06-24T08:14:28;22.50;90.90
55064;DHT22;40963;52.168;21.296;2023-06-24T08:16:54;22.60;90.00
55064;DHT22;40963;52.168;21.296;2023-06-24T08:19:19;22.60;89.90
55064;DHT22;40963;52.168;21.296;2023-06-24T08:21:45;22.60;88.70
55064;DHT22;40963;52.168;21.296;2023-06-24T08:24:11;22.80;88.20
55064;DHT22;40963;52.168;21.296;2023-06-24T08:26:36;22.90;87.20
55064;DHT22;40963;52.168;21.296;2023-06-24T08:29:02;23.00;85.90
55064;DHT22;40963;52.168;21.296;2023-06-24T08:31:28;23.10;85.40
55064;DHT22;40963;52.168;21.296;2023-06-24T08:33:54;23.10;84.70
55064;DHT22;40963;52.168;21.296;2023-06-24T08:36:22;23.10;83.30
55064;DHT22;40963;52.168;21.296;2023-06-24T08:38:49;23.10;83.70
55064;DHT22;40963;52.168;21.296;2023-06-24T08:41:15;23.00;82.80
55064;DHT22;40963;52.168;21.296;2023-06-24T08:43:40;23.00;84.50
55064;DHT22;40963;52.168;21.296;2023-06-24T08:46:06;23.00;85.00
55064;DHT22;40963;52.168;21.296;2023-06-24T08:48:33;22.90;85.50
55064;DHT22;40963;52.168;21.296;2023-06-24T08:51:07;22.90;84.90
55064;DHT22;40963;52.168;21.296;2023-06-24T08:53:33;22.90;84.80
55064;DHT22;40963;52.168;21.296;2023-06-24T08:55:59;22.90;85.70
55064;DHT22;40963;52.168;21.296;2023-06-24T08:58:25;22.90;85.40
55064;DHT22;40963;52.168;21.296;2023-06-24T09:00:52;22.90;84.80
55064;DHT22;40963;52.168;21.296;2023-06-24T09:03:17;22.90;84.60
55064;DHT22;40963;52.168;21.296;2023-06-24T09:05:43;23.00;83.80
55064;DHT22;40963;52.168;21.296;2023-06-24T09:08:09;23.10;84.50
55064;DHT22;40963;52.168;21.296;2023-06-24T09:10:36;23.20;83.50
55064;DHT22;40963;52.168;21.296;2023-06-24T09:13:04;23.20;82.00
55064;DHT22;40963;52.168;21.296;2023-06-24T09:15:37;23.20;81.80
55064;DHT22;40963;52.168;21.296;2023-06-24T09:18:03;23.30;80.90
55064;DHT22;40963;52.168;21.296;2023-06-24T09:20:33;23.20;78.70
55064;DHT22;40963;52.168;21.296;2023-06-24T09:23:05;23.20;77.60
55064;DHT22;40963;52.168;21.296;2023-06-24T09:25:31;23.30;76.80
55064;DHT22;40963;52.168;21.296;2023-06-24T09:28:00;23.30;74.70
55064;DHT22;40963;52.168;21.296;2023-06-24T09:30:26;23.30;73.90
55064;DHT22;40963;52.168;21.296;2023-06-24T09:32:53;23.40;74.20
55064;DHT22;40963;52.168;21.296;2023-06-24T09:35:23;23.50;74.10
55064;DHT22;40963;52.168;21.296;2023-06-24T09:37:53;23.50;74.00
55064;DHT22;40963;52.168;21.296;2023-06-24T09:40:19;23.60;73.90
55064;DHT22;40963;52.168;21.296;2023-06-24T09:42:55;23.60;71.70
55064;DHT22;40963;52.168;21.296;2023-06-24T09:45:25;23.50;69.90
55064;DHT22;40963;52.168;21.296;2023-06-24T09:47:51;23.50;68.80
55064;DHT22;40963;52.168;21.296;2023-06-24T09:50:17;23.60;68.10
55064;DHT22;40963;52.168;21.296;2023-06-24T09:52:44;23.60;67.30
55064;DHT22;40963;52.168;21.296;2023-06-24T09:55:13;23.70;66.90
55064;DHT22;40963;52.168;21.296;2023-06-24T09:57:41;23.70;65.30
55064;DHT22;40963;52.168;21.296;2023-06-24T10:00:09;23.60;63.90
55064;DHT22;40963;52.168;21.296;2023-06-24T10:02:35;23.60;64.00
55064;DHT22;40963;52.168;21.296;2023-06-24T10:05:02;23.60;64.50
55064;DHT22;40963;52.168;21.296;2023-06-24T10:07:28;23.70;65.20
55064;DHT22;40963;52.168;21.296;2023-06-24T10:09:54;23.70;65.80
55064;DHT22;40963;52.168;21.296;2023-06-24T10:12:20;23.70;65.00
55064;DHT22;40963;52.168;21.296;2023-06-24T10:14:46;23.70;63.40
55064;DHT22;40963;52.168;21.296;2023-06-24T10:17:12;23.70;62.80
55064;DHT22;40963;52.168;21.296;2023-06-24T10:19:39;23.70;62.60
55064;DHT22;40963;52.168;21.296;2023-06-24T10:22:09;23.80;63.00
55064;DHT22;40963;52.168;21.296;2023-06-24T10:24:37;23.90;63.50
55064;DHT22;40963;52.168;21.296;2023-06-24T10:27:07;23.80;62.80
55064;DHT22;40963;52.168;21.296;2023-06-24T10:32:03;23.90;63.70
55064;DHT22;40963;52.168;21.296;2023-06-24T10:34:32;23.80;62.70
55064;DHT22;40963;52.168;21.296;2023-06-24T10:39:58;23.80;62.00
55064;DHT22;40963;52.168;21.296;2023-06-24T10:42:43;23.90;62.50
55064;DHT22;40963;52.168;21.296;2023-06-24T10:47:35;23.90;63.20
55064;DHT22;40963;52.168;21.296;2023-06-24T10:50:01;23.80;61.80
55064;DHT22;40963;52.168;21.296;2023-06-24T10:52:27;23.70;60.60
55064;DHT22;40963;52.168;21.296;2023-06-24T10:54:53;23.70;59.70
55064;DHT22;40963;52.168;21.296;2023-06-24T10:57:24;23.70;59.40
55064;DHT22;40963;52.168;21.296;2023-06-24T10:59:51;23.70;59.80
55064;DHT22;40963;52.168;21.296;2023-06-24T11:02:22;23.70;60.00
55064;DHT22;40963;52.168;21.296;2023-06-24T11:04:56;23.60;59.80
55064;DHT22;40963;52.168;21.296;2023-06-24T11:07:26;23.60;59.80
55064;DHT22;40963;52.168;21.296;2023-06-24T11:09:54;23.60;60.60
55064;DHT22;40963;52.168;21.296;2023-06-24T11:12:29;23.60;60.60
55064;DHT22;40963;52.168;21.296;2023-06-24T11:15:00;23.60;61.00
55064;DHT22;40963;52.168;21.296;2023-06-24T11:17:27;23.60;61.30
55064;DHT22;40963;52.168;21.296;2023-06-24T11:19:54;23.50;61.20
55064;DHT22;40963;52.168;21.296;2023-06-24T11:22:20;23.50;61.60
55064;DHT22;40963;52.168;21.296;2023-06-24T11:24:46;23.50;61.50
55064;DHT22;40963;52.168;21.296;2023-06-24T11:27:11;23.50;61.80
55064;DHT22;40963;52.168;21.296;2023-06-24T11:29:37;23.50;63.10
55064;DHT22;40963;52.168;21.296;2023-06-24T11:32:06;23.50;63.60
55064;DHT22;40963;52.168;21.296;2023-06-24T11:34:32;23.50;64.70
55064;DHT22;40963;52.168;21.296;2023-06-24T11:36:58;23.50;64.30
55064;DHT22;40963;52.168;21.296;2023-06-24T11:39:27;23.40;63.30
55064;DHT22;40963;52.168;21.296;2023-06-24T11:41:53;23.40;63.10
55064;DHT22;40963;52.168;21.296;2023-06-24T11:44:24;23.40;63.00
55064;DHT22;40963;52.168;21.296;2023-06-24T11:46:50;23.30;63.00
55064;DHT22;40963;52.168;21.296;2023-06-24T11:49:15;23.30;62.60
55064;DHT22;40963;52.168;21.296;2023-06-24T11:51:50;23.30;62.30
55064;DHT22;40963;52.168;21.296;2023-06-24T11:54:18;23.30;63.50
55064;DHT22;40963;52.168;21.296;2023-06-24T11:56:50;23.30;62.70
55064;DHT22;40963;52.168;21.296;2023-06-24T11:59:21;23.20;62.30
55064;DHT22;40963;52.168;21.296;2023-06-24T12:01:55;23.20;62.50
55064;DHT22;40963;52.168;21.296;2023-06-24T12:04:22;23.30;63.00
55064;DHT22;40963;52.168;21.296;2023-06-24T12:06:52;23.40;63.20
55064;DHT22;40963;52.168;21.296;2023-06-24T12:09:17;23.40;63.30
55064;DHT22;40963;52.168;21.296;2023-06-24T12:11:43;23.50;63.30
55064;DHT22;40963;52.168;21.296;2023-06-24T12:14:09;23.50;62.90
55064;DHT22;40963;52.168;21.296;2023-06-24T12:16:35;23.50;62.60
55064;DHT22;40963;52.168;21.296;2023-06-24T12:19:00;23.40;62.90
55064;DHT22;40963;52.168;21.296;2023-06-24T12:21:26;23.40;63.00
55064;DHT22;40963;52.168;21.296;2023-06-24T12:23:52;23.40;63.30
55064;DHT22;40963;52.168;21.296;2023-06-24T12:26:17;23.30;63.00
55064;DHT22;40963;52.168;21.296;2023-06-24T12:28:43;23.30;63.30
55064;DHT22;40963;52.168;21.296;2023-06-24T12:31:09;23.20;63.50
55064;DHT22;40963;52.168;21.296;2023-06-24T12:33:35;23.20;63.80
55064;DHT22;40963;52.168;21.296;2023-06-24T12:36:00;23.10;64.10
55064;DHT22;40963;52.168;21.296;2023-06-24T12:38:26;23.10;64.90
55064;DHT22;40963;52.168;21.296;2023-06-24T12:40:51;23.10;65.40
55064;DHT22;40963;52.168;21.296;2023-06-24T12:43:18;23.10;66.00
55064;DHT22;40963;52.168;21.296;2023-06-24T12:45:43;23.00;66.10
55064;DHT22;40963;52.168;21.296;2023-06-24T12:48:10;23.00;66.80
55064;DHT22;40963;52.168;21.296;2023-06-24T12:50:35;22.90;67.20
55064;DHT22;40963;52.168;21.296;2023-06-24T12:53:01;22.90;67.60
55064;DHT22;40963;52.168;21.296;2023-06-24T12:55:28;22.90;68.00
55064;DHT22;40963;52.168;21.296;2023-06-24T12:57:54;22.90;68.90
55064;DHT22;40963;52.168;21.296;2023-06-24T13:00:21;22.80;68.00
55064;DHT22;40963;52.168;21.296;2023-06-24T13:02:47;22.80;67.70
55064;DHT22;40963;52.168;21.296;2023-06-24T13:05:13;22.70;67.80
55064;DHT22;40963;52.168;21.296;2023-06-24T13:07:39;22.70;68.30
55064;DHT22;40963;52.168;21.296;2023-06-24T13:10:05;22.70;68.70
55064;DHT22;40963;52.168;21.296;2023-06-24T13:12:34;22.70;68.90
55064;DHT22;40963;52.168;21.296;2023-06-24T13:15:00;22.70;69.60
55064;DHT22;40963;52.168;21.296;2023-06-24T13:17:25;22.70;70.50
55064;DHT22;40963;52.168;21.296;2023-06-24T13:19:52;22.70;70.00
55064;DHT22;40963;52.168;21.296;2023-06-24T13:22:18;22.60;70.00
55064;DHT22;40963;52.168;21.296;2023-06-24T13:24:44;22.60;69.90
55064;DHT22;40963;52.168;21.296;2023-06-24T13:27:10;22.60;70.50
55064;DHT22;40963;52.168;21.296;2023-06-24T13:29:36;22.60;70.80
55064;DHT22;40963;52.168;21.296;2023-06-24T13:32:01;22.60;71.00
55064;DHT22;40963;52.168;21.296;2023-06-24T13:34:27;22.60;70.60
55064;DHT22;40963;52.168;21.296;2023-06-24T13:36:53;22.60;70.70
55064;DHT22;40963;52.168;21.296;2023-06-24T13:39:18;22.60;71.10
55064;DHT22;40963;52.168;21.296;2023-06-24T13:41:44;22.60;71.50
55064;DHT22;40963;52.168;21.296;2023-06-24T13:44:10;22.60;71.20
55064;DHT22;40963;52.168;21.296;2023-06-24T13:46:36;22.60;71.40
55064;DHT22;40963;52.168;21.296;2023-06-24T13:49:02;22.60;71.50
55064;DHT22;40963;52.168;21.296;2023-06-24T13:51:28;22.60;71.90
55064;DHT22;40963;52.168;21.296;2023-06-24T13:53:54;22.60;72.20
55064;DHT22;40963;52.168;21.296;2023-06-24T13:56:21;22.70;72.30
55064;DHT22;40963;52.168;21.296;2023-06-24T13:58:47;22.70;72.20
55064;DHT22;40963;52.168;21.296;2023-06-24T14:01:13;22.70;72.10
55064;DHT22;40963;52.168;21.296;2023-06-24T14:03:39;22.70;71.50
55064;DHT22;40963;52.168;21.296;2023-06-24T14:06:05;22.70;71.20
55064;DHT22;40963;52.168;21.296;2023-06-24T14:08:32;22.80;72.20
55064;DHT22;40963;52.168;21.296;2023-06-24T14:10:58;22.90;72.80
55064;DHT22;40963;52.168;21.296;2023-06-24T14:13:25;22.90;72.40
55064;DHT22;40963;52.168;21.296;2023-06-24T14:15:52;23.00;72.70
55064;DHT22;40963;52.168;21.296;2023-06-24T14:18:17;23.00;72.80
55064;DHT22;40963;52.168;21.296;2023-06-24T14:20:43;23.10;73.60
55064;DHT22;40963;52.168;21.296;2023-06-24T14:23:09;23.10;73.90
55064;DHT22;40963;52.168;21.296;2023-06-24T14:25:34;23.10;73.90
55064;DHT22;40963;52.168;21.296;2023-06-24T14:28:00;23.10;72.50
55064;DHT22;40963;52.168;21.296;2023-06-24T14:30:25;23.10;71.80
55064;DHT22;40963;52.168;21.296;2023-06-24T14:32:51;23.10;71.90
55064;DHT22;40963;52.168;21.296;2023-06-24T14:35:17;23.20;72.30
55064;DHT22;40963;52.168;21.296;2023-06-24T14:37:42;23.20;71.60
55064;DHT22;40963;52.168;21.296;2023-06-24T14:40:08;23.20;71.30
55064;DHT22;40963;52.168;21.296;2023-06-24T14:42:35;23.20;71.30
55064;DHT22;40963;52.168;21.296;2023-06-24T14:45:01;23.20;70.50
55064;DHT22;40963;52.168;21.296;2023-06-24T14:47:27;23.10;70.20
55064;DHT22;40963;52.168;21.296;2023-06-24T14:49:52;23.10;69.70
55064;DHT22;40963;52.168;21.296;2023-06-24T14:52:18;23.10;69.70
55064;DHT22;40963;52.168;21.296;2023-06-24T14:54:45;23.00;67.70
55064;DHT22;40963;52.168;21.296;2023-06-24T14:57:11;22.90;67.20
55064;DHT22;40963;52.168;21.296;2023-06-24T14:59:37;22.80;67.10
55064;DHT22;40963;52.168;21.296;2023-06-24T15:02:03;22.80;67.20
55064;DHT22;40963;52.168;21.296;2023-06-24T15:04:28;22.70;67.80
55064;DHT22;40963;52.168;21.296;2023-06-24T15:06:54;22.80;68.00
55064;DHT22;40963;52.168;21.296;2023-06-24T15:09:22;22.70;67.50
55064;DHT22;40963;52.168;21.296;2023-06-24T15:11:48;22.60;67.50
55064;DHT22;40963;52.168;21.296;2023-06-24T15:14:14;22.60;67.30
55064;DHT22;40963;52.168;21.296;2023-06-24T15:16:39;22.50;67.90
55064;DHT22;40963;52.168;21.296;2023-06-24T15:19:05;22.40;67.20
55064;DHT22;40963;52.168;21.296;2023-06-24T15:21:31;22.40;67.90
55064;DHT22;40963;52.168;21.296;2023-06-24T15:23:56;22.40;68.60
55064;DHT22;40963;52.168;21.296;2023-06-24T15:26:22;22.40;69.50
55064;DHT22;40963;52.168;21.296;2023-06-24T15:28:47;22.40;70.10